Airfield :
LOGIN :

Register | Disclaimer

   EN    FR    IT 

 










Legend :    VFR   Marginal VFR   IFR   Intensive IFR   Very Intensive IFR
Visi :
Ceiling :
>= 8 km
>= 3000ft
5 to 8 km
1000 to 3000 ft
1500m to 5 km
500 to 1000 ft
800 to 1500m
200 to 500 ft
< 800m
< 200 ft
Symbols :   Thunderstorms  Fog  Heavy snow  Heavy precipitations  Wind > 20 kt
SIGMETs :     Misc.  Thunderstorms  Icing  Turbulence  Mountain Waves  Volcanic Ashes







- Airport Elevation : 2425 ft


ETHA - Altenstadt Army

CURRENT METAR :
  • 171820Z 26023G33KT 9999 -RA FEW015 OVC040 02/M01 Q1009 BLACKBLU FCST CANCEL

EXPIRED METARs :
  • 171720Z 26019KT 9999 -RA FEW020 OVC060 02/M01 Q1008 BLACKBLU BLU TEMPO GRN
  • 171708Z 26017KT 9999 -RA FEW010 OVC070 02/M00 Q1008 BLACKBLU BLU TEMPO GRN
  • 171620Z 25015KT 6000 -RASN FEW030 OVC050 01/M00 Q1008 BLACKWHT BLU TEMPO GRN
  • 171552Z 26016G26KT 6000 -RASN FEW030 OVC050 02/M01 Q1008 BLACKWHT BLU TEMPO GRN

TAF COR TAF ETHA
Valid from the 17 at 15:00 until the 18 at 00:00 UTC


171726Z 1715/1724 26020KT 9999 NSW SCT020 BKN050
TEMPO 1715/1721 28025G40KT 4000 SN SCT015 BKN020
TEMPO 1721/1724 28025G45KT 2000 SHSN BKN008TCU CANCEL 1820
No reported NOTAMs for that airfield.



MET'MAP, your aeronautical weather chart ! - Copyright ORBIFLY December 2007 - Disclaimer

ORBIFLY MET'MAP TEAM :

Programming & Development : Alexandra Zaïnal
Concept & Development : Baudouin d'Aumeries
Co-Development & Prog : Marc-Olivier Méhu
Technical & hardware support : Manuel Goepfert

Contact : metmap@orbifly.com




SOURCES & CREDITS :

   NOAA